sensor_id;sensor_type;location;lat;lon;timestamp;P1;durP1;ratioP1;P2;durP2;ratioP2
26504;SDS011;19493;48.042;7.584;2024-03-08T00:00:34;129.43;;;26.92;;
26504;SDS011;19493;48.042;7.584;2024-03-08T00:02:59;133.50;;;26.20;;
26504;SDS011;19493;48.042;7.584;2024-03-08T00:05:27;133.35;;;29.10;;
26504;SDS011;19493;48.042;7.584;2024-03-08T00:07:52;140.30;;;29.05;;
26504;SDS011;19493;48.042;7.584;2024-03-08T00:10:18;129.13;;;27.35;;
26504;SDS011;19493;48.042;7.584;2024-03-08T00:12:46;135.07;;;28.38;;
26504;SDS011;19493;48.042;7.584;2024-03-08T00:15:15;147.35;;;29.80;;
26504;SDS011;19493;48.042;7.584;2024-03-08T00:17:41;148.00;;;34.28;;
26504;SDS011;19493;48.042;7.584;2024-03-08T00:20:07;124.95;;;29.73;;
26504;SDS011;19493;48.042;7.584;2024-03-08T00:22:34;141.45;;;30.42;;
26504;SDS011;19493;48.042;7.584;2024-03-08T00:25:00;135.88;;;30.38;;
26504;SDS011;19493;48.042;7.584;2024-03-08T00:27:27;122.50;;;28.67;;
26504;SDS011;19493;48.042;7.584;2024-03-08T00:29:56;145.52;;;29.65;;
26504;SDS011;19493;48.042;7.584;2024-03-08T00:32:22;143.68;;;28.50;;
26504;SDS011;19493;48.042;7.584;2024-03-08T00:34:49;199.50;;;44.28;;
26504;SDS011;19493;48.042;7.584;2024-03-08T00:37:17;151.52;;;33.08;;
26504;SDS011;19493;48.042;7.584;2024-03-08T00:39:43;158.88;;;34.63;;
26504;SDS011;19493;48.042;7.584;2024-03-08T00:42:08;143.43;;;34.13;;
26504;SDS011;19493;48.042;7.584;2024-03-08T00:44:34;159.45;;;35.10;;
26504;SDS011;19493;48.042;7.584;2024-03-08T00:46:59;145.63;;;32.97;;
26504;SDS011;19493;48.042;7.584;2024-03-08T00:49:25;129.77;;;29.27;;
26504;SDS011;19493;48.042;7.584;2024-03-08T00:51:51;143.57;;;29.45;;
26504;SDS011;19493;48.042;7.584;2024-03-08T00:54:16;133.43;;;28.08;;
26504;SDS011;19493;48.042;7.584;2024-03-08T00:56:42;136.38;;;29.50;;
26504;SDS011;19493;48.042;7.584;2024-03-08T00:59:07;115.18;;;26.60;;
26504;SDS011;19493;48.042;7.584;2024-03-08T01:01:33;132.80;;;29.65;;
26504;SDS011;19493;48.042;7.584;2024-03-08T01:03:58;141.93;;;28.88;;
26504;SDS011;19493;48.042;7.584;2024-03-08T01:06:24;147.45;;;29.65;;
26504;SDS011;19493;48.042;7.584;2024-03-08T01:08:50;129.55;;;25.80;;
26504;SDS011;19493;48.042;7.584;2024-03-08T01:11:17;134.85;;;27.90;;
26504;SDS011;19493;48.042;7.584;2024-03-08T01:13:43;147.75;;;30.20;;
26504;SDS011;19493;48.042;7.584;2024-03-08T01:16:08;117.55;;;26.13;;
26504;SDS011;19493;48.042;7.584;2024-03-08T01:18:35;136.70;;;27.95;;
26504;SDS011;19493;48.042;7.584;2024-03-08T01:21:01;146.45;;;29.75;;
26504;SDS011;19493;48.042;7.584;2024-03-08T01:23:26;141.10;;;28.40;;
26504;SDS011;19493;48.042;7.584;2024-03-08T01:25:52;181.23;;;34.58;;
26504;SDS011;19493;48.042;7.584;2024-03-08T01:28:22;122.05;;;27.52;;
26504;SDS011;19493;48.042;7.584;2024-03-08T01:30:49;140.48;;;30.48;;
26504;SDS011;19493;48.042;7.584;2024-03-08T01:33:20;146.88;;;28.92;;
26504;SDS011;19493;48.042;7.584;2024-03-08T01:35:50;144.63;;;31.58;;
26504;SDS011;19493;48.042;7.584;2024-03-08T01:38:19;147.27;;;29.45;;
26504;SDS011;19493;48.042;7.584;2024-03-08T01:40:48;145.75;;;30.50;;
26504;SDS011;19493;48.042;7.584;2024-03-08T01:45:45;137.35;;;30.80;;
26504;SDS011;19493;48.042;7.584;2024-03-08T01:48:11;150.50;;;30.38;;
26504;SDS011;19493;48.042;7.584;2024-03-08T01:50:37;146.20;;;29.15;;
26504;SDS011;19493;48.042;7.584;2024-03-08T01:53:06;124.90;;;27.52;;
26504;SDS011;19493;48.042;7.584;2024-03-08T01:55:35;137.77;;;29.80;;
26504;SDS011;19493;48.042;7.584;2024-03-08T01:58:01;149.60;;;28.88;;
26504;SDS011;19493;48.042;7.584;2024-03-08T02:00:29;130.93;;;25.20;;
26504;SDS011;19493;48.042;7.584;2024-03-08T02:02:55;145.85;;;26.52;;
26504;SDS011;19493;48.042;7.584;2024-03-08T02:05:22;129.75;;;28.73;;
26504;SDS011;19493;48.042;7.584;2024-03-08T02:07:48;134.52;;;28.65;;
26504;SDS011;19493;48.042;7.584;2024-03-08T02:10:14;140.90;;;27.83;;
26504;SDS011;19493;48.042;7.584;2024-03-08T02:12:39;137.68;;;28.55;;
26504;SDS011;19493;48.042;7.584;2024-03-08T02:15:05;145.60;;;27.60;;
26504;SDS011;19493;48.042;7.584;2024-03-08T02:17:32;146.93;;;27.73;;
26504;SDS011;19493;48.042;7.584;2024-03-08T02:19:58;138.52;;;27.50;;
26504;SDS011;19493;48.042;7.584;2024-03-08T02:22:28;122.05;;;27.33;;
26504;SDS011;19493;48.042;7.584;2024-03-08T02:24:55;155.55;;;31.85;;
26504;SDS011;19493;48.042;7.584;2024-03-08T02:27:25;138.57;;;27.85;;
26504;SDS011;19493;48.042;7.584;2024-03-08T02:29:52;154.27;;;32.92;;
26504;SDS011;19493;48.042;7.584;2024-03-08T02:32:23;163.25;;;31.35;;
26504;SDS011;19493;48.042;7.584;2024-03-08T02:34:49;158.52;;;30.27;;
26504;SDS011;19493;48.042;7.584;2024-03-08T02:37:15;134.88;;;28.08;;
26504;SDS011;19493;48.042;7.584;2024-03-08T02:39:41;153.48;;;29.23;;
26504;SDS011;19493;48.042;7.584;2024-03-08T02:42:06;149.23;;;30.63;;
26504;SDS011;19493;48.042;7.584;2024-03-08T02:44:32;163.02;;;29.88;;
26504;SDS011;19493;48.042;7.584;2024-03-08T02:47:01;149.27;;;33.33;;
26504;SDS011;19493;48.042;7.584;2024-03-08T02:49:26;131.02;;;32.25;;
26504;SDS011;19493;48.042;7.584;2024-03-08T02:51:52;158.07;;;31.95;;
26504;SDS011;19493;48.042;7.584;2024-03-08T02:54:18;149.73;;;30.70;;
26504;SDS011;19493;48.042;7.584;2024-03-08T02:56:45;145.85;;;33.90;;
26504;SDS011;19493;48.042;7.584;2024-03-08T02:59:11;183.82;;;35.88;;
26504;SDS011;19493;48.042;7.584;2024-03-08T03:01:37;183.70;;;32.67;;
26504;SDS011;19493;48.042;7.584;2024-03-08T03:04:03;172.20;;;36.05;;
26504;SDS011;19493;48.042;7.584;2024-03-08T03:06:29;151.02;;;30.98;;
26504;SDS011;19493;48.042;7.584;2024-03-08T03:08:55;192.15;;;35.47;;
26504;SDS011;19493;48.042;7.584;2024-03-08T03:11:22;196.57;;;35.60;;
26504;SDS011;19493;48.042;7.584;2024-03-08T03:13:48;175.90;;;36.13;;
26504;SDS011;19493;48.042;7.584;2024-03-08T03:16:17;196.10;;;39.22;;
26504;SDS011;19493;48.042;7.584;2024-03-08T03:18:46;153.07;;;34.25;;
26504;SDS011;19493;48.042;7.584;2024-03-08T03:21:12;177.30;;;35.65;;
26504;SDS011;19493;48.042;7.584;2024-03-08T03:23:39;164.15;;;36.45;;
26504;SDS011;19493;48.042;7.584;2024-03-08T03:26:05;169.98;;;34.00;;
26504;SDS011;19493;48.042;7.584;2024-03-08T03:28:32;176.98;;;35.72;;
26504;SDS011;19493;48.042;7.584;2024-03-08T03:30:58;185.98;;;35.28;;
26504;SDS011;19493;48.042;7.584;2024-03-08T03:33:24;165.00;;;34.90;;
26504;SDS011;19493;48.042;7.584;2024-03-08T03:35:50;155.90;;;32.83;;
26504;SDS011;19493;48.042;7.584;2024-03-08T03:38:17;164.40;;;33.03;;
26504;SDS011;19493;48.042;7.584;2024-03-08T03:40:44;138.55;;;32.50;;
26504;SDS011;19493;48.042;7.584;2024-03-08T03:43:11;151.00;;;31.13;;
26504;SDS011;19493;48.042;7.584;2024-03-08T03:45:36;141.55;;;32.90;;
26504;SDS011;19493;48.042;7.584;2024-03-08T03:48:06;160.88;;;34.33;;
26504;SDS011;19493;48.042;7.584;2024-03-08T03:50:34;170.15;;;34.38;;
26504;SDS011;19493;48.042;7.584;2024-03-08T03:53:00;172.55;;;35.67;;
26504;SDS011;19493;48.042;7.584;2024-03-08T03:55:25;148.05;;;34.00;;
26504;SDS011;19493;48.042;7.584;2024-03-08T03:57:52;154.02;;;32.50;;
26504;SDS011;19493;48.042;7.584;2024-03-08T04:00:17;153.93;;;33.78;;
26504;SDS011;19493;48.042;7.584;2024-03-08T04:02:43;156.73;;;34.17;;
26504;SDS011;19493;48.042;7.584;2024-03-08T04:05:10;160.95;;;32.28;;
26504;SDS011;19493;48.042;7.584;2024-03-08T04:07:36;155.32;;;33.42;;
26504;SDS011;19493;48.042;7.584;2024-03-08T04:10:05;148.05;;;30.80;;
26504;SDS011;19493;48.042;7.584;2024-03-08T04:12:33;137.20;;;29.23;;
26504;SDS011;19493;48.042;7.584;2024-03-08T04:14:59;139.90;;;30.00;;
26504;SDS011;19493;48.042;7.584;2024-03-08T04:17:24;143.43;;;29.52;;
26504;SDS011;19493;48.042;7.584;2024-03-08T04:19:50;151.77;;;29.60;;
26504;SDS011;19493;48.042;7.584;2024-03-08T04:22:16;136.50;;;30.05;;
26504;SDS011;19493;48.042;7.584;2024-03-08T04:24:42;142.55;;;30.15;;
26504;SDS011;19493;48.042;7.584;2024-03-08T04:27:08;122.53;;;30.73;;
26504;SDS011;19493;48.042;7.584;2024-03-08T04:29:34;146.07;;;28.88;;
26504;SDS011;19493;48.042;7.584;2024-03-08T04:32:00;161.30;;;34.03;;
26504;SDS011;19493;48.042;7.584;2024-03-08T04:34:28;156.73;;;32.50;;
26504;SDS011;19493;48.042;7.584;2024-03-08T04:36:54;154.15;;;32.83;;
26504;SDS011;19493;48.042;7.584;2024-03-08T04:39:22;163.13;;;31.77;;
26504;SDS011;19493;48.042;7.584;2024-03-08T04:41:48;172.80;;;31.67;;
26504;SDS011;19493;48.042;7.584;2024-03-08T04:44:14;139.10;;;31.73;;
26504;SDS011;19493;48.042;7.584;2024-03-08T04:46:41;139.60;;;30.40;;
26504;SDS011;19493;48.042;7.584;2024-03-08T04:49:06;176.57;;;33.50;;
26504;SDS011;19493;48.042;7.584;2024-03-08T04:51:32;149.52;;;33.10;;
26504;SDS011;19493;48.042;7.584;2024-03-08T04:53:58;162.60;;;31.95;;
26504;SDS011;19493;48.042;7.584;2024-03-08T04:56:24;162.50;;;33.80;;
26504;SDS011;19493;48.042;7.584;2024-03-08T04:58:50;138.40;;;34.30;;
26504;SDS011;19493;48.042;7.584;2024-03-08T05:01:16;158.98;;;33.70;;
26504;SDS011;19493;48.042;7.584;2024-03-08T05:03:42;155.38;;;36.35;;
26504;SDS011;19493;48.042;7.584;2024-03-08T05:06:07;159.85;;;35.33;;
26504;SDS011;19493;48.042;7.584;2024-03-08T05:08:33;177.80;;;36.85;;
26504;SDS011;19493;48.042;7.584;2024-03-08T05:10:59;145.10;;;32.95;;
26504;SDS011;19493;48.042;7.584;2024-03-08T05:13:28;161.43;;;36.33;;
26504;SDS011;19493;48.042;7.584;2024-03-08T05:15:57;152.10;;;35.88;;
26504;SDS011;19493;48.042;7.584;2024-03-08T05:18:23;187.32;;;37.17;;
26504;SDS011;19493;48.042;7.584;2024-03-08T05:20:49;173.80;;;36.47;;
26504;SDS011;19493;48.042;7.584;2024-03-08T05:23:16;199.43;;;37.58;;
26504;SDS011;19493;48.042;7.584;2024-03-08T05:25:44;191.32;;;38.33;;
26504;SDS011;19493;48.042;7.584;2024-03-08T05:28:11;184.57;;;40.65;;
26504;SDS011;19493;48.042;7.584;2024-03-08T05:30:38;197.77;;;37.42;;
26504;SDS011;19493;48.042;7.584;2024-03-08T05:33:03;163.60;;;34.90;;
26504;SDS011;19493;48.042;7.584;2024-03-08T05:35:29;185.57;;;37.08;;
26504;SDS011;19493;48.042;7.584;2024-03-08T05:37:55;184.80;;;37.30;;
26504;SDS011;19493;48.042;7.584;2024-03-08T05:40:22;196.13;;;38.08;;
26504;SDS011;19493;48.042;7.584;2024-03-08T05:42:49;202.45;;;40.10;;
26504;SDS011;19493;48.042;7.584;2024-03-08T05:45:14;186.40;;;37.05;;
26504;SDS011;19493;48.042;7.584;2024-03-08T05:47:40;188.05;;;37.10;;
26504;SDS011;19493;48.042;7.584;2024-03-08T05:50:05;178.82;;;36.53;;
26504;SDS011;19493;48.042;7.584;2024-03-08T05:52:35;157.27;;;35.85;;
26504;SDS011;19493;48.042;7.584;2024-03-08T05:55:01;173.38;;;36.47;;
26504;SDS011;19493;48.042;7.584;2024-03-08T05:57:28;189.18;;;39.08;;
26504;SDS011;19493;48.042;7.584;2024-03-08T05:59:53;179.57;;;37.92;;
26504;SDS011;19493;48.042;7.584;2024-03-08T06:02:19;174.40;;;37.97;;
26504;SDS011;19493;48.042;7.584;2024-03-08T06:04:47;162.27;;;35.63;;
26504;SDS011;19493;48.042;7.584;2024-03-08T06:07:13;169.88;;;36.60;;
26504;SDS011;19493;48.042;7.584;2024-03-08T06:09:38;161.95;;;36.08;;
26504;SDS011;19493;48.042;7.584;2024-03-08T06:12:04;158.63;;;34.58;;
26504;SDS011;19493;48.042;7.584;2024-03-08T06:14:31;150.45;;;34.95;;
26504;SDS011;19493;48.042;7.584;2024-03-08T06:16:57;332.63;;;79.82;;
26504;SDS011;19493;48.042;7.584;2024-03-08T06:19:23;235.05;;;52.25;;
26504;SDS011;19493;48.042;7.584;2024-03-08T06:21:48;168.85;;;35.83;;
26504;SDS011;19493;48.042;7.584;2024-03-08T06:24:14;146.32;;;34.10;;
26504;SDS011;19493;48.042;7.584;2024-03-08T06:26:40;172.73;;;33.85;;
26504;SDS011;19493;48.042;7.584;2024-03-08T06:29:06;157.98;;;34.30;;
26504;SDS011;19493;48.042;7.584;2024-03-08T06:31:32;157.77;;;31.13;;
26504;SDS011;19493;48.042;7.584;2024-03-08T06:33:58;167.05;;;34.30;;
26504;SDS011;19493;48.042;7.584;2024-03-08T06:36:23;194.25;;;38.47;;
26504;SDS011;19493;48.042;7.584;2024-03-08T06:38:49;201.02;;;39.25;;
26504;SDS011;19493;48.042;7.584;2024-03-08T06:41:15;204.90;;;38.65;;
26504;SDS011;19493;48.042;7.584;2024-03-08T06:43:44;206.70;;;45.83;;
26504;SDS011;19493;48.042;7.584;2024-03-08T06:46:10;199.98;;;40.50;;
26504;SDS011;19493;48.042;7.584;2024-03-08T06:48:39;169.23;;;36.45;;
26504;SDS011;19493;48.042;7.584;2024-03-08T06:51:05;205.00;;;39.38;;
26504;SDS011;19493;48.042;7.584;2024-03-08T06:53:31;175.15;;;35.03;;
26504;SDS011;19493;48.042;7.584;2024-03-08T06:55:57;167.30;;;35.53;;
26504;SDS011;19493;48.042;7.584;2024-03-08T06:58:23;160.20;;;31.67;;
26504;SDS011;19493;48.042;7.584;2024-03-08T07:00:49;156.30;;;33.30;;
26504;SDS011;19493;48.042;7.584;2024-03-08T07:03:18;141.38;;;34.30;;
26504;SDS011;19493;48.042;7.584;2024-03-08T07:05:44;118.03;;;31.23;;
26504;SDS011;19493;48.042;7.584;2024-03-08T07:08:09;136.32;;;32.25;;
26504;SDS011;19493;48.042;7.584;2024-03-08T07:10:35;135.35;;;31.67;;
26504;SDS011;19493;48.042;7.584;2024-03-08T07:13:02;161.52;;;37.88;;
26504;SDS011;19493;48.042;7.584;2024-03-08T07:15:28;148.10;;;31.30;;
26504;SDS011;19493;48.042;7.584;2024-03-08T07:17:54;137.95;;;28.77;;
26504;SDS011;19493;48.042;7.584;2024-03-08T07:20:19;138.35;;;28.05;;
26504;SDS011;19493;48.042;7.584;2024-03-08T07:22:46;123.07;;;28.52;;
26504;SDS011;19493;48.042;7.584;2024-03-08T07:25:12;118.25;;;26.45;;
26504;SDS011;19493;48.042;7.584;2024-03-08T07:27:52;126.13;;;24.60;;
26504;SDS011;19493;48.042;7.584;2024-03-08T07:30:19;117.85;;;26.15;;
26504;SDS011;19493;48.042;7.584;2024-03-08T07:33:05;96.05;;;21.33;;
26504;SDS011;19493;48.042;7.584;2024-03-08T07:35:32;134.07;;;24.65;;
26504;SDS011;19493;48.042;7.584;2024-03-08T07:38:07;100.47;;;25.75;;
26504;SDS011;19493;48.042;7.584;2024-03-08T07:40:38;116.00;;;24.48;;
26504;SDS011;19493;48.042;7.584;2024-03-08T07:43:06;91.38;;;21.95;;
26504;SDS011;19493;48.042;7.584;2024-03-08T07:45:32;110.72;;;23.75;;
26504;SDS011;19493;48.042;7.584;2024-03-08T07:47:57;102.05;;;23.67;;
26504;SDS011;19493;48.042;7.584;2024-03-08T07:50:23;102.60;;;24.17;;
26504;SDS011;19493;48.042;7.584;2024-03-08T07:52:49;104.10;;;21.67;;
26504;SDS011;19493;48.042;7.584;2024-03-08T07:55:14;99.97;;;23.20;;
26504;SDS011;19493;48.042;7.584;2024-03-08T07:57:40;98.50;;;22.67;;
26504;SDS011;19493;48.042;7.584;2024-03-08T08:00:07;96.10;;;22.55;;
26504;SDS011;19493;48.042;7.584;2024-03-08T08:02:34;127.43;;;23.60;;
26504;SDS011;19493;48.042;7.584;2024-03-08T08:05:00;101.70;;;23.55;;
26504;SDS011;19493;48.042;7.584;2024-03-08T08:07:26;99.43;;;21.88;;
26504;SDS011;19493;48.042;7.584;2024-03-08T08:09:53;98.10;;;22.95;;
26504;SDS011;19493;48.042;7.584;2024-03-08T08:12:19;95.97;;;23.88;;
26504;SDS011;19493;48.042;7.584;2024-03-08T08:14:44;92.78;;;23.02;;
26504;SDS011;19493;48.042;7.584;2024-03-08T08:17:10;107.97;;;22.85;;
26504;SDS011;19493;48.042;7.584;2024-03-08T08:19:37;105.05;;;25.13;;
26504;SDS011;19493;48.042;7.584;2024-03-08T08:22:03;105.25;;;22.40;;
26504;SDS011;19493;48.042;7.584;2024-03-08T08:24:29;122.07;;;22.85;;
26504;SDS011;19493;48.042;7.584;2024-03-08T08:26:54;96.10;;;24.27;;
26504;SDS011;19493;48.042;7.584;2024-03-08T08:29:20;101.80;;;25.55;;
26504;SDS011;19493;48.042;7.584;2024-03-08T08:31:47;118.35;;;24.52;;
26504;SDS011;19493;48.042;7.584;2024-03-08T08:34:12;115.97;;;24.77;;
26504;SDS011;19493;48.042;7.584;2024-03-08T08:36:38;118.10;;;24.75;;
26504;SDS011;19493;48.042;7.584;2024-03-08T08:39:04;107.63;;;26.75;;
26504;SDS011;19493;48.042;7.584;2024-03-08T08:41:37;130.88;;;26.45;;
26504;SDS011;19493;48.042;7.584;2024-03-08T08:44:03;102.05;;;24.30;;
26504;SDS011;19493;48.042;7.584;2024-03-08T08:46:28;107.38;;;23.98;;
26504;SDS011;19493;48.042;7.584;2024-03-08T08:48:54;133.07;;;26.85;;
26504;SDS011;19493;48.042;7.584;2024-03-08T08:51:20;134.23;;;25.95;;
26504;SDS011;19493;48.042;7.584;2024-03-08T08:53:46;142.75;;;31.92;;
26504;SDS011;19493;48.042;7.584;2024-03-08T08:56:12;117.82;;;27.38;;
26504;SDS011;19493;48.042;7.584;2024-03-08T08:58:42;100.13;;;24.48;;
26504;SDS011;19493;48.042;7.584;2024-03-08T09:01:08;97.00;;;25.27;;
26504;SDS011;19493;48.042;7.584;2024-03-08T09:03:35;79.70;;;20.88;;
26504;SDS011;19493;48.042;7.584;2024-03-08T09:06:05;95.28;;;25.23;;
26504;SDS011;19493;48.042;7.584;2024-03-08T09:08:35;81.90;;;21.55;;
26504;SDS011;19493;48.042;7.584;2024-03-08T09:11:01;89.32;;;20.90;;
26504;SDS011;19493;48.042;7.584;2024-03-08T09:13:27;75.78;;;20.42;;
26504;SDS011;19493;48.042;7.584;2024-03-08T09:15:52;68.18;;;21.05;;
26504;SDS011;19493;48.042;7.584;2024-03-08T09:18:18;75.32;;;20.20;;
26504;SDS011;19493;48.042;7.584;2024-03-08T09:20:44;75.00;;;20.48;;
26504;SDS011;19493;48.042;7.584;2024-03-08T09:23:10;68.63;;;18.33;;
26504;SDS011;19493;48.042;7.584;2024-03-08T09:25:35;61.20;;;17.33;;
26504;SDS011;19493;48.042;7.584;2024-03-08T09:28:01;68.13;;;17.70;;
26504;SDS011;19493;48.042;7.584;2024-03-08T09:30:26;66.65;;;17.70;;
26504;SDS011;19493;48.042;7.584;2024-03-08T09:32:52;56.92;;;15.00;;
26504;SDS011;19493;48.042;7.584;2024-03-08T09:35:17;60.30;;;17.10;;
26504;SDS011;19493;48.042;7.584;2024-03-08T09:37:43;61.13;;;16.13;;
26504;SDS011;19493;48.042;7.584;2024-03-08T09:40:09;72.10;;;19.23;;
26504;SDS011;19493;48.042;7.584;2024-03-08T09:42:35;57.08;;;17.85;;
26504;SDS011;19493;48.042;7.584;2024-03-08T09:45:11;55.17;;;14.80;;
26504;SDS011;19493;48.042;7.584;2024-03-08T09:47:40;51.55;;;15.60;;
26504;SDS011;19493;48.042;7.584;2024-03-08T09:50:06;60.17;;;15.98;;
26504;SDS011;19493;48.042;7.584;2024-03-08T09:52:34;65.38;;;16.20;;
26504;SDS011;19493;48.042;7.584;2024-03-08T09:55:02;61.20;;;17.52;;
26504;SDS011;19493;48.042;7.584;2024-03-08T09:57:32;62.28;;;17.08;;
26504;SDS011;19493;48.042;7.584;2024-03-08T10:00:02;51.58;;;15.95;;
26504;SDS011;19493;48.042;7.584;2024-03-08T10:02:33;60.78;;;18.08;;
26504;SDS011;19493;48.042;7.584;2024-03-08T10:05:00;53.97;;;16.20;;
26504;SDS011;19493;48.042;7.584;2024-03-08T10:07:28;69.35;;;18.33;;
26504;SDS011;19493;48.042;7.584;2024-03-08T10:09:54;61.28;;;17.75;;
26504;SDS011;19493;48.042;7.584;2024-03-08T10:12:19;55.63;;;15.98;;
26504;SDS011;19493;48.042;7.584;2024-03-08T10:14:45;67.05;;;16.98;;
26504;SDS011;19493;48.042;7.584;2024-03-08T10:17:11;59.00;;;16.52;;
26504;SDS011;19493;48.042;7.584;2024-03-08T10:19:37;56.67;;;15.25;;
26504;SDS011;19493;48.042;7.584;2024-03-08T10:22:03;57.70;;;17.17;;
26504;SDS011;19493;48.042;7.584;2024-03-08T10:24:30;53.55;;;15.75;;
26504;SDS011;19493;48.042;7.584;2024-03-08T10:26:59;49.78;;;14.60;;
26504;SDS011;19493;48.042;7.584;2024-03-08T10:29:27;52.92;;;14.98;;
26504;SDS011;19493;48.042;7.584;2024-03-08T10:31:54;46.50;;;15.60;;
26504;SDS011;19493;48.042;7.584;2024-03-08T10:34:21;47.78;;;15.30;;
26504;SDS011;19493;48.042;7.584;2024-03-08T10:36:48;51.95;;;16.63;;
26504;SDS011;19493;48.042;7.584;2024-03-08T10:39:25;52.15;;;14.18;;
26504;SDS011;19493;48.042;7.584;2024-03-08T10:41:53;48.17;;;13.95;;
26504;SDS011;19493;48.042;7.584;2024-03-08T10:49:38;61.42;;;17.65;;
26504;SDS011;19493;48.042;7.584;2024-03-08T10:52:10;52.60;;;16.05;;
26504;SDS011;19493;48.042;7.584;2024-03-08T10:54:37;61.25;;;16.25;;
26504;SDS011;19493;48.042;7.584;2024-03-08T10:57:03;65.85;;;20.25;;
26504;SDS011;19493;48.042;7.584;2024-03-08T10:59:30;74.03;;;20.08;;
26504;SDS011;19493;48.042;7.584;2024-03-08T11:01:58;58.90;;;16.35;;
26504;SDS011;19493;48.042;7.584;2024-03-08T11:04:24;50.45;;;15.32;;
26504;SDS011;19493;48.042;7.584;2024-03-08T11:06:50;52.55;;;16.17;;
26504;SDS011;19493;48.042;7.584;2024-03-08T11:09:37;51.33;;;16.67;;
26504;SDS011;19493;48.042;7.584;2024-03-08T11:14:55;54.95;;;16.33;;
26504;SDS011;19493;48.042;7.584;2024-03-08T11:19:54;48.47;;;16.50;;
26504;SDS011;19493;48.042;7.584;2024-03-08T11:22:22;56.90;;;17.88;;
26504;SDS011;19493;48.042;7.584;2024-03-08T11:24:49;48.45;;;15.98;;
26504;SDS011;19493;48.042;7.584;2024-03-08T11:27:15;60.90;;;17.73;;
26504;SDS011;19493;48.042;7.584;2024-03-08T11:29:40;59.25;;;17.10;;
26504;SDS011;19493;48.042;7.584;2024-03-08T11:32:10;49.47;;;15.38;;
26504;SDS011;19493;48.042;7.584;2024-03-08T11:34:41;45.10;;;15.30;;
26504;SDS011;19493;48.042;7.584;2024-03-08T11:37:12;51.80;;;15.85;;
26504;SDS011;19493;48.042;7.584;2024-03-08T11:39:39;49.20;;;14.57;;
26504;SDS011;19493;48.042;7.584;2024-03-08T11:42:11;39.88;;;13.20;;
26504;SDS011;19493;48.042;7.584;2024-03-08T11:44:40;47.80;;;14.23;;
26504;SDS011;19493;48.042;7.584;2024-03-08T11:47:09;52.08;;;13.98;;
26504;SDS011;19493;48.042;7.584;2024-03-08T11:49:39;48.13;;;13.77;;
26504;SDS011;19493;48.042;7.584;2024-03-08T11:52:10;49.33;;;17.08;;
26504;SDS011;19493;48.042;7.584;2024-03-08T11:54:38;44.15;;;14.63;;
26504;SDS011;19493;48.042;7.584;2024-03-08T11:57:04;41.33;;;13.50;;
26504;SDS011;19493;48.042;7.584;2024-03-08T11:59:30;42.65;;;12.70;;
26504;SDS011;19493;48.042;7.584;2024-03-08T12:02:05;39.15;;;12.00;;
26504;SDS011;19493;48.042;7.584;2024-03-08T12:04:31;39.00;;;13.00;;
26504;SDS011;19493;48.042;7.584;2024-03-08T12:07:01;37.03;;;11.52;;
26504;SDS011;19493;48.042;7.584;2024-03-08T12:09:28;35.22;;;11.50;;
26504;SDS011;19493;48.042;7.584;2024-03-08T12:11:54;37.67;;;11.30;;
26504;SDS011;19493;48.042;7.584;2024-03-08T12:14:20;37.28;;;12.05;;
26504;SDS011;19493;48.042;7.584;2024-03-08T12:16:45;35.58;;;11.85;;
26504;SDS011;19493;48.042;7.584;2024-03-08T12:19:11;44.90;;;12.07;;
26504;SDS011;19493;48.042;7.584;2024-03-08T12:21:37;40.70;;;12.73;;
26504;SDS011;19493;48.042;7.584;2024-03-08T12:24:07;36.33;;;11.23;;
26504;SDS011;19493;48.042;7.584;2024-03-08T12:26:37;35.72;;;11.40;;
26504;SDS011;19493;48.042;7.584;2024-03-08T12:29:24;33.78;;;11.75;;
26504;SDS011;19493;48.042;7.584;2024-03-08T12:31:52;32.50;;;11.70;;
26504;SDS011;19493;48.042;7.584;2024-03-08T12:34:25;35.92;;;11.70;;
26504;SDS011;19493;48.042;7.584;2024-03-08T12:36:52;38.97;;;11.57;;
26504;SDS011;19493;48.042;7.584;2024-03-08T12:39:19;42.15;;;12.40;;
26504;SDS011;19493;48.042;7.584;2024-03-08T12:41:52;37.45;;;11.70;;
26504;SDS011;19493;48.042;7.584;2024-03-08T12:44:24;40.38;;;12.13;;
26504;SDS011;19493;48.042;7.584;2024-03-08T12:46:50;42.35;;;12.13;;
26504;SDS011;19493;48.042;7.584;2024-03-08T12:49:16;39.40;;;12.85;;
26504;SDS011;19493;48.042;7.584;2024-03-08T12:51:45;49.85;;;12.65;;
26504;SDS011;19493;48.042;7.584;2024-03-08T12:54:11;44.78;;;11.23;;
26504;SDS011;19493;48.042;7.584;2024-03-08T12:56:37;34.75;;;11.65;;
26504;SDS011;19493;48.042;7.584;2024-03-08T12:59:04;42.30;;;13.40;;
26504;SDS011;19493;48.042;7.584;2024-03-08T13:01:31;42.03;;;13.50;;
26504;SDS011;19493;48.042;7.584;2024-03-08T13:03:57;45.17;;;14.23;;
26504;SDS011;19493;48.042;7.584;2024-03-08T13:06:23;35.35;;;12.07;;
26504;SDS011;19493;48.042;7.584;2024-03-08T13:08:52;39.67;;;12.75;;
26504;SDS011;19493;48.042;7.584;2024-03-08T13:11:18;41.08;;;11.90;;
26504;SDS011;19493;48.042;7.584;2024-03-08T13:13:45;42.33;;;13.40;;
26504;SDS011;19493;48.042;7.584;2024-03-08T13:16:12;39.03;;;11.95;;
26504;SDS011;19493;48.042;7.584;2024-03-08T13:18:40;44.80;;;13.82;;
26504;SDS011;19493;48.042;7.584;2024-03-08T13:21:09;39.83;;;12.95;;
26504;SDS011;19493;48.042;7.584;2024-03-08T13:23:39;40.55;;;13.00;;
26504;SDS011;19493;48.042;7.584;2024-03-08T13:26:09;44.28;;;13.00;;
26504;SDS011;19493;48.042;7.584;2024-03-08T13:28:45;37.40;;;12.48;;
26504;SDS011;19493;48.042;7.584;2024-03-08T13:31:11;40.65;;;13.05;;
26504;SDS011;19493;48.042;7.584;2024-03-08T13:33:39;38.92;;;12.13;;
26504;SDS011;19493;48.042;7.584;2024-03-08T13:36:07;37.85;;;12.50;;
26504;SDS011;19493;48.042;7.584;2024-03-08T13:38:40;37.45;;;12.52;;
26504;SDS011;19493;48.042;7.584;2024-03-08T13:41:09;38.97;;;12.40;;
26504;SDS011;19493;48.042;7.584;2024-03-08T13:43:46;47.55;;;12.38;;
26504;SDS011;19493;48.042;7.584;2024-03-08T13:46:15;47.13;;;13.02;;
26504;SDS011;19493;48.042;7.584;2024-03-08T13:48:40;36.83;;;11.93;;
26504;SDS011;19493;48.042;7.584;2024-03-08T13:51:06;43.10;;;12.30;;
26504;SDS011;19493;48.042;7.584;2024-03-08T13:53:33;39.63;;;12.57;;
26504;SDS011;19493;48.042;7.584;2024-03-08T13:55:59;47.00;;;12.95;;
26504;SDS011;19493;48.042;7.584;2024-03-08T13:58:26;43.05;;;12.88;;
26504;SDS011;19493;48.042;7.584;2024-03-08T14:00:52;41.75;;;12.65;;
26504;SDS011;19493;48.042;7.584;2024-03-08T14:03:17;42.97;;;12.40;;
26504;SDS011;19493;48.042;7.584;2024-03-08T14:05:43;44.95;;;13.05;;
26504;SDS011;19493;48.042;7.584;2024-03-08T14:08:10;43.40;;;12.88;;
26504;SDS011;19493;48.042;7.584;2024-03-08T14:10:37;47.00;;;11.88;;
26504;SDS011;19493;48.042;7.584;2024-03-08T14:13:03;42.80;;;11.75;;
26504;SDS011;19493;48.042;7.584;2024-03-08T14:15:30;42.78;;;12.60;;
26504;SDS011;19493;48.042;7.584;2024-03-08T14:17:56;41.80;;;11.68;;
26504;SDS011;19493;48.042;7.584;2024-03-08T14:20:22;40.42;;;11.02;;
26504;SDS011;19493;48.042;7.584;2024-03-08T14:22:52;49.28;;;12.35;;
26504;SDS011;19493;48.042;7.584;2024-03-08T14:25:21;43.15;;;12.18;;